createdAt,value
2019-01-24T00:02:21.523Z,99127.54
2019-01-24T00:04:52.342Z,99126.95
2019-01-24T00:07:22.969Z,99113.25
2019-01-24T00:09:53.410Z,99105.92
2019-01-24T00:12:23.893Z,99106.03
2019-01-24T00:14:54.291Z,99090.66
2019-01-24T00:17:24.732Z,99085.22
2019-01-24T00:19:55.658Z,99122.59
2019-01-24T00:22:26.073Z,99122.59
2019-01-24T00:24:56.471Z,99130.63
2019-01-24T00:27:26.984Z,99134.77
2019-01-24T00:29:57.427Z,99141.50
2019-01-24T00:32:27.990Z,99147.30
2019-01-24T00:34:58.394Z,99150.14
2019-01-24T00:37:28.769Z,99158.74
2019-01-24T00:39:59.114Z,99151.66
2019-01-24T00:42:29.568Z,99149.78
2019-01-24T00:44:59.910Z,99149.42
2019-01-24T00:47:30.268Z,99130.74
2019-01-24T00:50:00.642Z,99130.74
2019-01-24T00:52:31.007Z,99139.50
2019-01-24T00:55:01.389Z,99125.78
2019-01-24T00:57:31.789Z,99126.84
2019-01-24T01:00:02.105Z,99126.84
2019-01-24T01:02:32.549Z,99124.13
2019-01-24T01:05:03.026Z,99121.65
2019-01-24T01:07:33.436Z,99110.67
2019-01-24T01:10:03.780Z,99111.47
2019-01-24T01:12:34.298Z,99094.59
2019-01-24T01:15:07.003Z,99094.59
2019-01-24T01:17:37.463Z,99094.72
2019-01-24T01:20:09.687Z,99101.22
2019-01-24T01:22:40.031Z,99094.00
2019-01-24T01:25:12.074Z,99099.20
2019-01-24T01:27:42.493Z,99097.77
2019-01-24T01:30:15.890Z,99099.44
2019-01-24T01:32:46.510Z,99109.36
2019-01-24T01:35:16.872Z,99104.98
2019-01-24T01:37:47.465Z,99107.10
2019-01-24T01:40:18.735Z,99103.78
2019-01-24T01:42:49.068Z,99098.47
2019-01-24T01:45:24.186Z,99090.31
2019-01-24T01:47:56.127Z,99088.07
2019-01-24T01:50:27.167Z,99083.01
2019-01-24T01:52:59.023Z,99083.01
2019-01-24T01:55:29.888Z,99090.55
2019-01-24T01:58:00.206Z,99098.34
2019-01-24T02:00:31.348Z,99091.61
2019-01-24T02:03:02.018Z,99095.73
2019-01-24T02:05:33.462Z,99090.66
2019-01-24T02:08:04.604Z,99095.17
2019-01-24T02:10:35.507Z,99099.08
2019-01-24T02:13:06.127Z,99093.87
2019-01-24T02:15:36.480Z,99103.64
2019-01-24T02:18:06.946Z,99111.73
2019-01-24T02:20:37.249Z,99111.36
2019-01-24T02:23:08.004Z,99096.91
2019-01-24T02:25:38.518Z,99091.23
2019-01-24T02:28:08.843Z,99095.55
2019-01-24T02:30:39.266Z,99099.79
2019-01-24T02:33:09.565Z,99099.07
2019-01-24T02:35:39.965Z,99081.21
2019-01-24T02:38:10.331Z,99099.03
2019-01-24T02:40:40.743Z,99082.31
2019-01-24T02:43:11.145Z,99078.73
2019-01-24T02:45:41.502Z,99075.56
2019-01-24T02:48:11.801Z,99072.94
2019-01-24T02:50:42.077Z,99070.91
2019-01-24T02:53:12.560Z,99068.66
2019-01-24T02:55:42.904Z,99069.39
2019-01-24T02:58:13.626Z,99065.72
2019-01-24T03:00:43.993Z,99066.45
2019-01-24T03:03:14.330Z,99058.43
2019-01-24T03:05:44.623Z,99058.81
2019-01-24T03:08:16.287Z,99059.08
2019-01-24T03:10:46.652Z,99062.63
2019-01-24T03:13:16.953Z,99063.58
2019-01-24T03:15:47.344Z,99053.80
2019-01-24T03:18:17.697Z,99052.89
2019-01-24T03:20:48.030Z,99042.97
2019-01-24T03:23:18.828Z,99039.66
2019-01-24T03:25:49.112Z,99031.29
2019-01-24T03:28:19.726Z,99028.48
2019-01-24T03:30:50.726Z,99027.78
2019-01-24T03:33:21.027Z,99020.10
2019-01-24T03:35:51.344Z,99018.94
2019-01-24T03:38:21.807Z,99011.87
2019-01-24T03:40:52.138Z,99003.23
2019-01-24T03:43:22.430Z,99015.63
2019-01-24T03:45:52.787Z,99015.15
2019-01-24T03:48:23.165Z,99014.56
2019-01-24T03:50:53.585Z,99020.59
2019-01-24T03:53:23.983Z,99024.59
2019-01-24T03:55:54.355Z,99022.59
2019-01-24T03:58:25.717Z,99017.28
2019-01-24T04:00:56.114Z,99015.55
2019-01-24T04:03:26.478Z,99016.84
2019-01-24T04:05:56.832Z,99020.74
2019-01-24T04:08:27.306Z,99022.53
2019-01-24T04:10:57.669Z,99025.60
2019-01-24T04:13:27.962Z,99019.68
2019-01-24T04:15:58.364Z,99020.73
2019-01-24T04:18:28.776Z,99020.02
2019-01-24T04:20:59.115Z,99025.91
2019-01-24T04:23:29.451Z,99023.31
2019-01-24T04:25:59.744Z,99028.39
2019-01-24T04:28:34.236Z,99038.67
2019-01-24T04:31:04.572Z,99047.02
2019-01-24T04:33:34.949Z,99051.77
2019-01-24T04:36:05.349Z,99058.73
2019-01-24T04:38:35.721Z,99059.20
2019-01-24T04:41:05.990Z,99062.38
2019-01-24T04:43:36.355Z,99062.38
2019-01-24T04:46:06.887Z,99059.28
2019-01-24T04:48:37.271Z,99057.81
2019-01-24T04:51:07.660Z,99064.09
2019-01-24T04:53:37.994Z,99064.09
2019-01-24T04:56:08.394Z,99066.92
2019-01-24T04:58:38.784Z,99059.11
2019-01-24T05:01:09.142Z,99068.87
2019-01-24T05:03:40.001Z,99068.87
2019-01-24T05:06:10.366Z,99063.16
2019-01-24T05:08:41.149Z,99053.38
2019-01-24T05:11:11.468Z,99055.36
2019-01-24T05:13:41.914Z,99041.36
2019-01-24T05:16:12.206Z,99042.91
2019-01-24T05:18:42.540Z,99042.91
2019-01-24T05:21:12.903Z,99050.52
2019-01-24T05:23:43.279Z,99056.00
2019-01-24T05:26:13.626Z,99064.11
2019-01-24T05:28:44.037Z,99064.11
2019-01-24T05:31:14.344Z,99058.27
2019-01-24T05:33:44.650Z,99044.91
2019-01-24T05:36:14.975Z,99054.70
2019-01-24T05:38:45.625Z,99046.89
2019-01-24T05:41:15.935Z,99046.89
2019-01-24T05:43:46.263Z,99049.48
2019-01-24T05:46:16.644Z,99043.80
2019-01-24T05:48:46.986Z,99043.80
2019-01-24T05:51:17.428Z,99032.87
2019-01-24T05:53:47.865Z,99034.88
2019-01-24T05:56:18.285Z,99027.12
2019-01-24T05:58:48.827Z,99027.12
2019-01-24T06:01:19.774Z,99017.81
2019-01-24T06:03:51.386Z,99017.81
2019-01-24T06:06:23.478Z,99013.66
2019-01-24T06:08:54.116Z,99013.66
2019-01-24T06:11:25.052Z,99013.66
2019-01-24T06:13:57.211Z,99003.75
2019-01-24T06:16:29.488Z,99003.28
2019-01-24T06:19:00.246Z,99003.28
2019-01-24T06:21:31.367Z,99006.80
2019-01-24T06:24:03.479Z,99007.83
2019-01-24T06:26:34.302Z,99007.83
2019-01-24T06:29:05.149Z,99000.13
2019-01-24T06:31:37.702Z,99007.34
2019-01-24T06:34:08.613Z,99007.34
2019-01-24T06:36:44.896Z,99007.68
2019-01-24T06:39:15.661Z,99021.59
2019-01-24T06:41:46.667Z,99021.59
2019-01-24T06:44:17.224Z,99018.20
2019-01-24T06:46:47.801Z,99018.20
2019-01-24T06:49:18.537Z,99022.06
2019-01-24T06:51:49.312Z,99013.98
2019-01-24T06:54:20.003Z,99013.98
2019-01-24T06:56:50.755Z,99013.75
2019-01-24T06:59:23.362Z,99013.75
2019-01-24T07:01:54.799Z,99005.94
2019-01-24T07:04:25.879Z,99012.13
2019-01-24T07:06:57.422Z,98996.04
2019-01-24T07:09:29.309Z,98992.54
2019-01-24T07:12:00.371Z,98992.54
2019-01-24T07:14:31.315Z,98989.09
2019-01-24T07:17:02.240Z,98993.31
2019-01-24T07:19:34.447Z,98994.82
2019-01-24T07:22:05.299Z,98983.57
2019-01-24T07:24:37.220Z,98982.27
2019-01-24T07:27:07.890Z,98982.27
2019-01-24T07:29:38.930Z,98979.46
2019-01-24T07:32:20.561Z,98963.78
2019-01-24T07:34:51.430Z,98963.78
2019-01-24T07:37:22.251Z,98941.08
2019-01-24T07:39:53.286Z,98956.56
2019-01-24T07:42:25.511Z,98955.97
2019-01-24T07:44:57.802Z,98961.64
2019-01-24T07:47:28.605Z,98961.64
2019-01-24T07:49:59.626Z,98956.91
2019-01-24T07:52:37.789Z,98977.98
2019-01-24T07:58:00.763Z,98981.38
2019-01-24T08:00:31.416Z,98988.70
2019-01-24T08:03:02.162Z,98983.12
2019-01-24T08:05:32.865Z,98991.57
2019-01-24T08:08:03.566Z,98987.84
2019-01-24T08:10:34.284Z,99002.37
2019-01-24T08:13:06.662Z,99003.09
2019-01-24T08:15:42.603Z,98990.80
2019-01-24T08:18:13.331Z,98990.80
2019-01-24T08:20:44.074Z,98982.87
2019-01-24T08:23:15.002Z,98967.16
2019-01-24T08:25:45.696Z,98951.56
2019-01-24T08:28:17.479Z,98961.00
2019-01-24T08:30:48.167Z,98961.00
2019-01-24T08:33:18.862Z,98959.31
2019-01-24T08:35:50.342Z,98974.13
2019-01-24T08:38:21.401Z,98960.64
2019-01-24T08:40:52.351Z,98960.64
2019-01-24T08:43:23.311Z,98976.34
2019-01-24T08:45:54.066Z,98976.32
2019-01-24T08:48:24.615Z,98976.32
2019-01-24T08:50:55.065Z,98949.43
2019-01-24T08:53:27.398Z,98955.16
2019-01-24T08:55:58.075Z,98955.16
2019-01-24T08:58:28.771Z,98998.33
2019-01-24T09:00:59.520Z,98998.33
2019-01-24T09:03:30.194Z,99007.06
2019-01-24T09:06:01.075Z,99014.58
2019-01-24T09:08:31.976Z,99014.58
2019-01-24T09:11:02.763Z,99003.72
2019-01-24T09:13:33.349Z,98999.64
2019-01-24T09:16:04.061Z,98999.64
2019-01-24T09:18:34.553Z,99001.31
2019-01-24T09:21:05.273Z,99002.84
2019-01-24T09:23:35.959Z,99002.84
2019-01-24T09:26:06.916Z,98985.60
2019-01-24T09:28:41.306Z,98987.19
2019-01-24T09:31:11.876Z,98987.19
2019-01-24T09:33:42.701Z,98982.42
2019-01-24T09:36:14.842Z,98982.68
2019-01-24T09:38:45.648Z,98982.68
2019-01-24T09:41:16.418Z,98972.02
2019-01-24T09:43:47.996Z,98968.28
2019-01-24T09:46:18.768Z,98973.86
2019-01-24T09:48:49.368Z,98965.05
2019-01-24T09:51:40.060Z,98963.34
2019-01-24T09:54:10.667Z,98963.34
2019-01-24T09:56:41.255Z,98960.23
2019-01-24T09:59:12.392Z,98935.98
2019-01-24T10:01:44.256Z,98935.98
2019-01-24T10:04:15.071Z,98929.73
2019-01-24T10:06:46.008Z,98926.36
2019-01-24T10:09:16.688Z,98921.86
2019-01-24T10:11:47.430Z,98921.86
2019-01-24T10:14:18.972Z,98919.08
2019-01-24T10:16:49.757Z,98917.03
2019-01-24T10:19:21.735Z,98915.25
2019-01-24T10:21:52.848Z,98915.25
2019-01-24T10:24:23.508Z,98921.93
2019-01-24T10:26:55.378Z,98920.22
2019-01-24T10:29:26.059Z,98919.24
2019-01-24T10:31:56.484Z,98906.57
2019-01-24T10:34:27.032Z,98901.83
2019-01-24T10:36:57.736Z,98901.22
2019-01-24T10:39:29.241Z,98909.41
2019-01-24T10:42:00.080Z,98894.63
2019-01-24T10:44:30.732Z,98897.45
2019-01-24T10:47:01.396Z,98903.16
2019-01-24T10:49:32.540Z,98899.84
2019-01-24T10:52:03.624Z,98896.02
2019-01-24T10:54:35.768Z,98895.47
2019-01-24T10:57:06.572Z,98888.33
2019-01-24T10:59:37.444Z,98887.81
2019-01-24T11:02:09.282Z,98881.36
2019-01-24T11:04:40.014Z,98882.55
2019-01-24T11:07:10.654Z,98877.55
2019-01-24T11:09:41.268Z,98875.61
2019-01-24T11:12:12.016Z,98877.84
2019-01-24T11:14:42.799Z,98868.16
2019-01-24T11:17:14.983Z,98865.79
2019-01-24T11:19:45.598Z,98868.02
2019-01-24T11:22:17.110Z,98861.72
2019-01-24T11:24:47.734Z,98852.65
2019-01-24T11:27:18.554Z,98858.65
2019-01-24T11:29:49.341Z,98855.23
2019-01-24T11:32:20.296Z,98862.00
2019-01-24T11:34:52.614Z,98852.70
2019-01-24T11:37:23.618Z,98846.65
2019-01-24T11:39:54.361Z,98842.79
2019-01-24T11:42:26.000Z,98839.11
2019-01-24T11:44:56.600Z,98834.39
2019-01-24T11:47:27.621Z,98844.55
2019-01-24T11:49:58.336Z,98846.77
2019-01-24T11:52:29.927Z,98852.39
2019-01-24T11:55:00.746Z,98857.16
2019-01-24T11:57:31.528Z,98858.47
2019-01-24T12:00:02.328Z,98855.20
2019-01-24T12:02:39.566Z,98864.45
2019-01-24T12:05:06.636Z,98851.69
2019-01-24T12:07:37.341Z,98865.16
2019-01-24T12:10:10.374Z,98858.54
2019-01-24T12:12:41.866Z,98839.06
2019-01-24T12:15:14.909Z,98860.10
2019-01-24T12:17:47.033Z,98848.20
2019-01-24T12:20:21.219Z,98841.15
2019-01-24T12:22:52.003Z,98843.66
2019-01-24T12:25:23.319Z,98849.73
2019-01-24T12:27:54.041Z,98849.31
2019-01-24T12:30:30.430Z,98842.19
2019-01-24T12:33:02.191Z,98851.32
2019-01-24T12:35:33.165Z,98850.42
2019-01-24T12:38:04.557Z,98854.48
2019-01-24T12:40:36.265Z,98860.98
2019-01-24T12:43:08.507Z,98862.68
2019-01-24T12:45:40.466Z,98856.66
2019-01-24T12:48:11.074Z,98844.28
2019-01-24T12:50:41.771Z,98855.23
2019-01-24T12:53:12.472Z,98851.06
2019-01-24T12:55:43.542Z,98847.81
2019-01-24T12:58:14.248Z,98851.19
2019-01-24T13:00:45.085Z,98846.80
2019-01-24T13:03:16.001Z,98843.23
2019-01-24T13:05:46.643Z,98847.05
2019-01-24T13:08:37.310Z,98856.04
2019-01-24T13:11:07.960Z,98859.63
2019-01-24T13:13:39.935Z,98847.95
2019-01-24T13:16:10.800Z,98848.50
2019-01-24T13:18:44.269Z,98856.76
2019-01-24T13:21:17.711Z,98851.69
2019-01-24T13:24:08.643Z,98855.20
2019-01-24T13:26:40.783Z,98855.55
2019-01-24T13:29:11.587Z,98872.73
2019-01-24T13:31:42.336Z,98874.66
2019-01-24T13:34:13.010Z,98867.63
2019-01-24T13:36:43.633Z,98884.81
2019-01-24T13:39:15.401Z,98889.01
2019-01-24T13:41:46.227Z,98889.63
2019-01-24T13:44:16.882Z,98891.49
2019-01-24T13:46:47.571Z,98888.50
2019-01-24T13:49:18.213Z,98883.71
2019-01-24T13:51:48.737Z,98887.63
2019-01-24T13:54:19.552Z,98887.17
2019-01-24T13:56:50.190Z,98885.86
2019-01-24T13:59:20.862Z,98880.97
2019-01-24T14:01:53.030Z,98883.86
2019-01-24T14:04:31.621Z,98887.03
2019-01-24T14:07:02.270Z,98889.37
2019-01-24T14:09:32.651Z,98897.80
2019-01-24T14:12:03.364Z,98898.56
2019-01-24T14:14:34.074Z,98894.73
2019-01-24T14:17:06.439Z,98901.45
2019-01-24T14:19:37.809Z,98905.83
2019-01-24T14:22:08.382Z,98907.74
2019-01-24T14:24:39.151Z,98909.05
2019-01-24T14:27:11.201Z,98908.35
2019-01-24T14:29:41.942Z,98912.54
2019-01-24T14:32:12.669Z,98914.45
2019-01-24T14:34:44.946Z,98918.43
2019-01-24T14:37:16.944Z,98921.37
2019-01-24T14:39:47.713Z,98922.56
2019-01-24T14:42:18.226Z,98927.31
2019-01-24T14:44:48.830Z,98927.08
2019-01-24T14:47:22.093Z,98940.52
2019-01-24T14:49:52.934Z,98940.63
2019-01-24T14:52:23.742Z,98940.29
2019-01-24T14:54:54.993Z,98923.19
2019-01-24T14:57:27.479Z,98928.43
2019-01-24T14:59:58.532Z,98928.43
2019-01-24T15:02:30.240Z,98933.52
2019-01-24T15:05:00.799Z,98935.27
2019-01-24T15:07:31.663Z,98923.20
2019-01-24T15:10:02.224Z,98923.20
2019-01-24T15:12:33.824Z,98919.93
2019-01-24T15:15:05.572Z,98932.51
2019-01-24T15:17:37.584Z,98932.51
2019-01-24T15:20:10.487Z,98942.61
2019-01-24T15:22:42.288Z,98946.64
2019-01-24T15:25:13.422Z,98951.14
2019-01-24T15:27:44.557Z,98946.72
2019-01-24T15:30:17.866Z,98946.72
2019-01-24T15:32:48.498Z,98949.82
2019-01-24T15:35:20.089Z,98948.87
2019-01-24T15:37:54.696Z,98953.80
2019-01-24T15:40:32.859Z,98956.27
2019-01-24T15:43:03.613Z,98956.95
2019-01-24T15:45:34.632Z,98959.89
2019-01-24T15:48:05.872Z,98950.95
2019-01-24T15:50:38.654Z,98956.20
2019-01-24T15:53:12.207Z,98956.20
2019-01-24T15:55:44.220Z,98973.23
2019-01-24T15:58:17.410Z,98960.98
2019-01-24T16:00:48.568Z,98966.66
2019-01-24T16:03:20.191Z,98967.52
2019-01-24T16:05:50.998Z,98966.08
2019-01-24T16:08:21.798Z,98965.28
2019-01-24T16:10:53.951Z,98965.76
2019-01-24T16:13:24.888Z,98968.02
2019-01-24T16:15:58.620Z,98975.16
2019-01-24T16:18:30.987Z,98974.20
2019-01-24T16:21:01.572Z,98983.22
2019-01-24T16:23:32.375Z,98976.50
2019-01-24T16:26:03.176Z,98981.58
2019-01-24T16:28:34.315Z,98983.47
2019-01-24T16:31:05.331Z,98982.17
2019-01-24T16:33:38.437Z,98983.97
2019-01-24T16:36:10.680Z,98987.87
2019-01-24T16:38:42.937Z,98978.64
2019-01-24T16:41:14.992Z,98983.62
2019-01-24T16:43:45.784Z,98986.72
2019-01-24T16:46:16.434Z,98984.12
2019-01-24T16:48:47.247Z,98998.31
2019-01-24T16:51:19.075Z,99001.50
2019-01-24T16:53:49.975Z,99005.16
2019-01-24T16:56:20.534Z,99008.00
2019-01-24T16:58:51.122Z,99023.95
2019-01-24T17:01:23.530Z,99019.45
2019-01-24T17:03:54.544Z,99014.56
2019-01-24T17:06:26.544Z,99018.36
2019-01-24T17:08:58.398Z,99008.79
2019-01-24T17:11:29.477Z,99003.13
2019-01-24T17:14:04.237Z,99002.66
2019-01-24T17:16:34.936Z,99014.46
2019-01-24T17:19:06.399Z,99005.11
2019-01-24T17:21:37.579Z,99015.96
2019-01-24T17:24:09.040Z,99013.46
2019-01-24T17:26:39.943Z,99021.02
2019-01-24T17:29:10.688Z,99013.84
2019-01-24T17:31:43.764Z,99020.67
2019-01-24T17:34:14.429Z,99036.39
2019-01-24T17:36:44.959Z,99033.18
2019-01-24T17:39:18.406Z,99033.90
2019-01-24T17:41:49.152Z,99032.72
2019-01-24T17:44:19.824Z,99032.23
2019-01-24T17:46:50.636Z,99036.39
2019-01-24T17:49:20.990Z,99039.54
2019-01-24T17:51:51.389Z,99045.22
2019-01-24T17:54:21.777Z,99049.44
2019-01-24T17:56:52.178Z,99064.90
2019-01-24T17:59:22.582Z,99072.80
2019-01-24T18:01:52.955Z,99079.64
2019-01-24T18:04:23.262Z,99083.27
2019-01-24T18:06:53.699Z,99088.00
2019-01-24T18:09:24.169Z,99087.02
2019-01-24T18:11:55.403Z,99082.28
2019-01-24T18:14:25.774Z,99103.38
2019-01-24T18:16:56.564Z,99089.95
2019-01-24T18:19:28.170Z,99097.12
2019-01-24T18:21:58.597Z,99102.00
2019-01-24T18:24:29.162Z,99099.60
2019-01-24T18:27:00.526Z,99099.48
2019-01-24T18:29:30.962Z,99107.16
2019-01-24T18:32:01.358Z,99101.92
2019-01-24T18:34:31.754Z,99099.33
2019-01-24T18:37:02.081Z,99094.83
2019-01-24T18:39:32.435Z,99099.29
2019-01-24T18:42:03.224Z,99122.52
2019-01-24T18:44:33.558Z,99112.38
2019-01-24T18:47:03.959Z,99109.44
2019-01-24T18:49:34.340Z,99118.13
2019-01-24T18:52:04.736Z,99112.09
2019-01-24T18:54:36.079Z,99106.41
2019-01-24T18:57:07.382Z,99116.83
2019-01-24T18:59:37.972Z,99131.05
2019-01-24T19:02:07.683Z,99137.59
2019-01-24T19:04:38.552Z,99106.45
2019-01-24T19:07:09.643Z,99112.33
2019-01-24T19:09:40.775Z,99095.36
2019-01-24T19:12:11.461Z,99105.46
2019-01-24T19:14:42.009Z,99117.63
2019-01-24T19:17:12.679Z,99118.08
2019-01-24T19:19:43.278Z,99123.39
2019-01-24T19:22:13.971Z,99132.12
2019-01-24T19:24:44.539Z,99137.08
2019-01-24T19:27:15.219Z,99140.41
2019-01-24T19:29:46.346Z,99142.65
2019-01-24T19:32:16.909Z,99146.89
2019-01-24T19:34:47.246Z,99140.05
2019-01-24T19:37:17.641Z,99146.27
2019-01-24T19:39:48.082Z,99152.02
2019-01-24T19:42:18.411Z,99158.55
2019-01-24T19:44:48.781Z,99164.69
2019-01-24T19:47:19.427Z,99172.47
2019-01-24T19:49:49.980Z,99169.66
2019-01-24T19:52:20.685Z,99164.59
2019-01-24T19:54:51.452Z,99152.75
2019-01-24T19:57:22.219Z,99162.80
2019-01-24T19:59:52.797Z,99158.39
2019-01-24T20:02:23.563Z,99165.88
2019-01-24T20:04:55.291Z,99167.63
2019-01-24T20:07:26.923Z,99179.30
2019-01-24T20:09:58.526Z,99171.41
2019-01-24T20:12:29.073Z,99174.62
2019-01-24T20:14:59.814Z,99187.05
2019-01-24T20:17:31.721Z,99195.61
2019-01-24T20:20:03.600Z,99193.39
2019-01-24T20:22:34.270Z,99188.88
2019-01-24T20:25:06.128Z,99189.23
2019-01-24T20:27:37.248Z,99189.34
2019-01-24T20:30:11.784Z,99191.83
2019-01-24T20:32:42.246Z,99195.59
2019-01-24T20:35:17.082Z,99200.05
2019-01-24T20:37:47.889Z,99203.06
2019-01-24T20:40:18.554Z,99202.17
2019-01-24T20:42:49.130Z,99215.09
2019-01-24T20:45:19.440Z,99218.63
2019-01-24T20:47:54.059Z,99222.56
2019-01-24T20:50:24.499Z,99213.81
2019-01-24T20:52:54.860Z,99222.50
2019-01-24T20:55:25.315Z,99226.91
2019-01-24T20:57:55.737Z,99230.80
2019-01-24T21:00:29.739Z,99239.20
2019-01-24T21:03:00.553Z,99237.06
2019-01-24T21:05:31.364Z,99231.85
2019-01-24T21:08:02.065Z,99228.53
2019-01-24T21:10:32.957Z,99231.12
2019-01-24T21:13:03.393Z,99243.91
2019-01-24T21:15:33.803Z,99245.20
2019-01-24T21:18:04.327Z,99247.34
2019-01-24T21:20:36.589Z,99252.17
2019-01-24T21:23:08.146Z,99250.00
2019-01-24T21:25:40.446Z,99255.91
2019-01-24T21:28:11.195Z,99247.33
2019-01-24T21:30:43.825Z,99250.87
2019-01-24T21:33:14.650Z,99266.10
2019-01-24T21:35:47.395Z,99261.41
2019-01-24T21:38:17.983Z,99255.80
2019-01-24T21:40:48.735Z,99256.14
2019-01-24T21:43:21.541Z,99260.55
2019-01-24T21:45:54.769Z,99265.39
2019-01-24T21:48:25.707Z,99259.94
2019-01-24T21:50:57.671Z,99264.34
2019-01-24T21:53:29.618Z,99267.13
2019-01-24T21:56:00.276Z,99263.28
2019-01-24T21:58:32.391Z,99268.49
2019-01-24T22:01:04.370Z,99266.17
2019-01-24T22:03:36.568Z,99275.70
2019-01-24T22:06:07.448Z,99287.63
2019-01-24T22:08:38.031Z,99274.25
2019-01-24T22:11:09.549Z,99281.30
2019-01-24T22:13:42.979Z,99280.95
2019-01-24T22:16:13.341Z,99281.98
2019-01-24T22:18:43.758Z,99278.92
2019-01-24T22:21:14.528Z,99285.47
2019-01-24T22:23:45.575Z,99287.46
2019-01-24T22:26:17.179Z,99287.95
2019-01-24T22:28:47.946Z,99294.00
2019-01-24T22:31:18.349Z,99297.67
2019-01-24T22:33:48.822Z,99308.72
2019-01-24T22:36:19.271Z,99309.30
2019-01-24T22:38:49.776Z,99312.12
2019-01-24T22:41:20.598Z,99312.81
2019-01-24T22:43:51.022Z,99309.23
2019-01-24T22:46:21.439Z,99306.03
2019-01-24T22:48:51.961Z,99302.81
2019-01-24T22:51:22.382Z,99307.33
2019-01-24T22:53:52.728Z,99301.63
2019-01-24T22:56:23.549Z,99304.45
2019-01-24T22:58:54.284Z,99303.08
2019-01-24T23:01:47.894Z,99313.36
2019-01-24T23:04:21.032Z,99309.58
2019-01-24T23:06:51.896Z,99309.92
2019-01-24T23:09:22.757Z,99313.59
2019-01-24T23:11:54.889Z,99309.11
2019-01-24T23:15:18.095Z,99304.95
2019-01-24T23:17:49.114Z,99303.09
2019-01-24T23:20:19.963Z,99298.53
2019-01-24T23:22:50.634Z,99292.48
2019-01-24T23:25:21.698Z,99297.16
2019-01-24T23:27:52.279Z,99302.64
2019-01-24T23:30:22.633Z,99300.42
2019-01-24T23:32:53.111Z,99303.02
2019-01-24T23:35:23.482Z,99288.46
2019-01-24T23:37:53.777Z,99285.99
2019-01-24T23:40:24.699Z,99288.59
2019-01-24T23:42:55.085Z,99290.00
2019-01-24T23:45:25.399Z,99297.55
2019-01-24T23:48:01.759Z,99302.25
2019-01-24T23:50:32.128Z,99308.84
2019-01-24T23:53:03.671Z,99322.44
2019-01-24T23:55:34.059Z,99331.58
2019-01-24T23:58:04.928Z,99350.31
